createdAt,value
2023-04-10T00:02:06.432Z,33.47
2023-04-10T00:05:10.125Z,32.08
2023-04-10T00:08:12.074Z,33.38
2023-04-10T00:11:13.802Z,33.75
2023-04-10T00:14:15.693Z,29.77
2023-04-10T00:17:17.393Z,27.40
2023-04-10T00:20:20.657Z,26.35
2023-04-10T00:23:22.325Z,33.40
2023-04-10T00:26:24.055Z,32.60
2023-04-10T00:29:25.717Z,31.50
2023-04-10T00:32:27.727Z,30.92
2023-04-10T00:35:30.759Z,31.33
2023-04-10T00:38:32.676Z,29.80
2023-04-10T00:41:34.342Z,29.77
2023-04-10T00:44:36.024Z,31.35
2023-04-10T00:47:37.985Z,29.90
2023-04-10T00:50:41.075Z,28.13
2023-04-10T00:53:42.736Z,32.47
2023-04-10T00:56:45.204Z,28.27
2023-04-10T00:59:46.972Z,28.33
2023-04-10T01:02:49.176Z,32.47
2023-04-10T01:06:02.214Z,35.95
2023-04-10T01:09:10.389Z,35.25
2023-04-10T01:12:28.141Z,33.72
2023-04-10T01:15:37.427Z,31.60
2023-04-10T01:18:44.215Z,35.03
2023-04-10T01:21:48.764Z,32.92
2023-04-10T01:25:02.475Z,32.13
2023-04-10T01:28:24.794Z,35.15
2023-04-10T01:31:34.640Z,30.35
2023-04-10T01:34:41.073Z,30.23
2023-04-10T01:37:46.341Z,30.48
2023-04-10T01:40:52.335Z,38.53
2023-04-10T01:43:56.164Z,31.70
2023-04-10T01:47:00.954Z,31.65
2023-04-10T01:50:04.256Z,34.38
2023-04-10T01:53:07.361Z,31.83
2023-04-10T01:56:09.365Z,29.77
2023-04-10T01:59:11.845Z,28.85
2023-04-10T02:02:14.944Z,33.22
2023-04-10T02:05:17.227Z,30.52
2023-04-10T02:08:26.458Z,32.13
2023-04-10T02:11:37.696Z,27.23
2023-04-10T02:14:43.855Z,29.45
2023-04-10T02:17:48.971Z,24.40
2023-04-10T02:20:50.701Z,27.45
2023-04-10T02:23:52.832Z,29.08
2023-04-10T02:26:54.742Z,28.85
2023-04-10T02:29:56.884Z,28.95
2023-04-10T02:32:59.979Z,27.83
2023-04-10T02:36:01.772Z,31.13
2023-04-10T02:39:03.892Z,31.83
2023-04-10T02:42:05.587Z,28.05
2023-04-10T02:45:08.647Z,27.10
2023-04-10T02:48:11.703Z,26.25
2023-04-10T02:51:13.462Z,29.98
2023-04-10T02:54:15.167Z,31.65
2023-04-10T02:57:16.876Z,38.17
2023-04-10T03:00:18.715Z,39.10
2023-04-10T03:03:21.929Z,32.90
2023-04-10T03:06:23.735Z,35.55
2023-04-10T03:09:25.657Z,29.00
2023-04-10T03:12:27.328Z,31.65
2023-04-10T03:15:29.018Z,28.88
2023-04-10T03:18:32.062Z,33.63
2023-04-10T03:21:33.720Z,31.80
2023-04-10T03:24:35.398Z,28.50
2023-04-10T03:27:38.959Z,27.75
2023-04-10T03:30:40.868Z,35.47
2023-04-10T03:33:44.062Z,49.95
2023-04-10T03:36:45.850Z,64.72
2023-04-10T03:39:47.814Z,59.40
2023-04-10T03:42:49.444Z,56.95
2023-04-10T03:45:51.075Z,51.72
2023-04-10T03:48:54.293Z,50.35
2023-04-10T03:51:56.076Z,39.30
2023-04-10T03:54:58.190Z,33.92
2023-04-10T03:57:59.859Z,30.02
2023-04-10T04:01:01.920Z,38.22
2023-04-10T04:04:05.105Z,33.92
2023-04-10T04:07:06.897Z,30.40
2023-04-10T04:10:08.886Z,31.23
2023-04-10T04:13:10.897Z,28.27
2023-04-10T04:16:12.711Z,27.27
2023-04-10T04:19:15.833Z,26.05
2023-04-10T04:22:17.643Z,27.05
2023-04-10T04:25:19.689Z,25.70
2023-04-10T04:28:21.419Z,28.63
2023-04-10T04:31:23.072Z,26.25
2023-04-10T04:34:26.056Z,26.35
2023-04-10T04:37:27.661Z,27.38
2023-04-10T04:40:29.297Z,24.67
2023-04-10T04:43:30.955Z,24.33
2023-04-10T04:46:32.746Z,26.05
2023-04-10T04:49:35.851Z,23.52
2023-04-10T04:52:37.662Z,28.20
2023-04-10T04:55:39.367Z,23.90
2023-04-10T04:58:41.069Z,24.30
2023-04-10T05:01:42.817Z,26.77
2023-04-10T05:04:46.179Z,30.50
2023-04-10T05:07:48.067Z,28.02
2023-04-10T05:10:49.744Z,28.17
2023-04-10T05:13:51.463Z,26.40
2023-04-10T05:16:53.165Z,24.35
2023-04-10T05:19:56.150Z,23.45
2023-04-10T05:22:57.976Z,25.00
2023-04-10T05:25:59.876Z,26.70
2023-04-10T05:29:01.787Z,26.23
2023-04-10T05:32:03.699Z,22.08
2023-04-10T05:35:08.019Z,23.52
2023-04-10T05:38:10.197Z,24.73
2023-04-10T05:41:11.928Z,23.88
2023-04-10T05:44:13.616Z,21.00
2023-04-10T05:47:15.538Z,20.73
2023-04-10T05:50:18.588Z,20.40
2023-04-10T05:53:21.010Z,18.15
2023-04-10T05:56:22.999Z,15.27
2023-04-10T05:59:24.768Z,16.73
2023-04-10T06:02:26.650Z,17.15
2023-04-10T06:05:30.022Z,18.33
2023-04-10T06:08:31.812Z,19.23
2023-04-10T06:11:33.715Z,15.77
2023-04-10T06:14:35.693Z,16.27
2023-04-10T06:17:41.989Z,15.85
2023-04-10T06:20:45.256Z,21.75
2023-04-10T06:23:47.016Z,14.35
2023-04-10T06:26:48.653Z,18.60
2023-04-10T06:29:50.702Z,17.90
2023-04-10T06:32:53.185Z,19.42
2023-04-10T06:35:56.381Z,19.33
2023-04-10T06:38:58.113Z,15.48
2023-04-10T06:42:01.314Z,15.65
2023-04-10T06:45:04.131Z,13.23
2023-04-10T06:48:06.635Z,14.25
2023-04-10T06:51:09.727Z,14.20
2023-04-10T06:54:11.518Z,15.68
2023-04-10T06:57:13.236Z,12.88
2023-04-10T07:00:15.649Z,15.82
2023-04-10T07:03:17.892Z,18.88
2023-04-10T07:06:21.118Z,14.20
2023-04-10T07:09:23.164Z,14.90
2023-04-10T07:12:24.812Z,16.13
2023-04-10T07:15:26.433Z,14.43
2023-04-10T07:18:28.394Z,14.35
2023-04-10T07:21:31.680Z,14.63
2023-04-10T07:24:33.378Z,17.55
2023-04-10T07:27:35.312Z,16.85
2023-04-10T07:30:36.962Z,13.93
2023-04-10T07:33:38.926Z,13.05
2023-04-10T07:36:41.979Z,12.43
2023-04-10T07:39:43.723Z,13.45
2023-04-10T07:42:46.167Z,16.20
2023-04-10T07:45:48.022Z,14.43
2023-04-10T07:48:49.985Z,13.00
2023-04-10T07:51:53.311Z,13.68
2023-04-10T07:54:55.258Z,11.65
2023-04-10T07:57:56.919Z,14.27
2023-04-10T08:00:59.037Z,11.07
2023-04-10T08:04:02.098Z,13.15
2023-04-10T08:07:06.867Z,11.90
2023-04-10T08:10:09.787Z,15.07
2023-04-10T08:13:11.717Z,11.77
2023-04-10T08:16:13.581Z,10.95
2023-04-10T08:19:15.524Z,14.30
2023-04-10T08:22:18.523Z,11.38
2023-04-10T08:25:20.430Z,13.10
2023-04-10T08:28:22.412Z,11.18
2023-04-10T08:31:25.499Z,9.30
2023-04-10T08:34:27.207Z,9.95
2023-04-10T08:37:30.347Z,10.57
2023-04-10T08:40:32.036Z,13.23
2023-04-10T08:43:34.059Z,7.03
2023-04-10T08:46:37.052Z,9.18
2023-04-10T08:49:45.742Z,8.48
2023-04-10T08:52:52.024Z,9.32
2023-04-10T08:55:53.728Z,6.47
2023-04-10T08:58:55.752Z,6.72
2023-04-10T09:01:57.946Z,6.65
2023-04-10T09:05:02.839Z,9.25
2023-04-10T09:08:07.730Z,8.05
2023-04-10T09:11:09.390Z,10.05
2023-04-10T09:14:20.540Z,9.07
2023-04-10T09:17:23.611Z,8.25
2023-04-10T09:20:26.439Z,9.13
2023-04-10T09:23:29.484Z,8.75
2023-04-10T09:26:32.401Z,11.63
2023-04-10T09:29:42.509Z,9.60
2023-04-10T09:32:45.710Z,8.73
2023-04-10T09:35:47.437Z,9.68
2023-04-10T09:38:54.325Z,10.00
2023-04-10T09:41:55.973Z,7.30
2023-04-10T09:44:58.026Z,8.13
2023-04-10T09:48:05.252Z,10.23
2023-04-10T09:51:07.421Z,9.30
2023-04-10T09:54:10.448Z,10.32
2023-04-10T09:57:15.919Z,10.55
2023-04-10T10:00:17.917Z,13.00
2023-04-10T10:03:20.129Z,11.55
2023-04-10T10:06:22.753Z,10.90
2023-04-10T10:09:27.738Z,10.90
2023-04-10T10:12:35.667Z,10.68
2023-04-10T10:15:44.696Z,11.85
2023-04-10T10:18:54.890Z,10.70
2023-04-10T10:22:00.418Z,11.32
2023-04-10T10:25:04.892Z,8.90
2023-04-10T10:28:07.416Z,10.43
2023-04-10T10:31:10.233Z,10.90
2023-04-10T10:34:11.963Z,10.85
2023-04-10T10:37:14.158Z,11.68
2023-04-10T10:40:22.867Z,10.45
2023-04-10T10:43:31.587Z,9.60
2023-04-10T10:46:37.938Z,10.30
2023-04-10T10:49:55.575Z,9.00
2023-04-10T10:52:57.380Z,10.82
2023-04-10T10:56:34.481Z,10.75
2023-04-10T10:59:54.063Z,11.00
2023-04-10T11:03:28.420Z,10.15
2023-04-10T11:06:50.165Z,10.52
2023-04-10T11:09:53.104Z,11.20
2023-04-10T11:13:18.273Z,9.95
2023-04-10T11:16:20.929Z,14.15
2023-04-10T11:19:23.896Z,10.15
2023-04-10T11:22:26.175Z,11.95
2023-04-10T11:25:46.557Z,11.43
2023-04-10T11:28:49.757Z,10.50
2023-04-10T11:31:56.459Z,10.48
2023-04-10T11:34:58.362Z,9.50
2023-04-10T11:38:13.546Z,9.82
2023-04-10T11:41:15.214Z,9.35
2023-04-10T11:44:26.504Z,9.95
2023-04-10T11:47:28.312Z,11.82
2023-04-10T11:50:30.105Z,9.80
2023-04-10T11:53:31.809Z,8.52
2023-04-10T11:56:33.850Z,11.27
2023-04-10T11:59:36.991Z,9.35
2023-04-10T12:02:51.059Z,9.50
2023-04-10T12:05:52.835Z,10.35
2023-04-10T12:08:55.094Z,12.23
2023-04-10T12:11:59.871Z,10.32
2023-04-10T12:15:03.300Z,13.32
2023-04-10T12:18:05.027Z,11.18
2023-04-10T12:21:08.655Z,12.48
2023-04-10T12:24:11.000Z,10.52
2023-04-10T12:27:16.438Z,12.10
2023-04-10T12:30:20.038Z,10.65
2023-04-10T12:36:24.898Z,9.57
2023-04-10T12:39:26.565Z,7.18
2023-04-10T12:42:28.274Z,8.15
2023-04-10T12:45:44.134Z,7.53
2023-04-10T12:48:45.823Z,7.35
2023-04-10T12:51:49.036Z,5.80
2023-04-10T12:54:50.677Z,7.95
2023-04-10T12:57:52.389Z,5.85
2023-04-10T13:00:55.615Z,6.40
2023-04-10T13:03:58.504Z,5.65
2023-04-10T13:07:00.194Z,7.20
2023-04-10T13:10:02.104Z,5.65
2023-04-10T13:13:04.472Z,8.27
2023-04-10T13:16:08.718Z,7.80
2023-04-10T13:19:10.416Z,6.45
2023-04-10T13:22:12.433Z,7.95
2023-04-10T13:25:14.119Z,6.90
2023-04-10T13:28:16.155Z,9.48
2023-04-10T13:31:19.289Z,13.45
2023-04-10T13:34:21.000Z,11.25
2023-04-10T13:37:22.706Z,9.18
2023-04-10T13:40:24.660Z,25.98
2023-04-10T13:43:26.556Z,9.43
2023-04-10T13:46:29.627Z,8.35
2023-04-10T13:49:31.631Z,14.95
2023-04-10T13:52:34.545Z,11.02
2023-04-10T13:55:36.267Z,27.33
2023-04-10T13:58:38.191Z,7.07
2023-04-10T14:01:41.384Z,9.27
2023-04-10T14:04:43.346Z,9.35
2023-04-10T14:07:45.060Z,6.22
2023-04-10T14:10:47.418Z,9.18
2023-04-10T14:13:49.168Z,8.50
2023-04-10T14:16:52.253Z,9.32
2023-04-10T14:19:53.979Z,10.00
2023-04-10T14:22:55.898Z,5.88
2023-04-10T14:25:57.596Z,10.32
2023-04-10T14:28:59.302Z,6.65
2023-04-10T14:32:02.345Z,9.88
2023-04-10T14:35:04.490Z,8.73
2023-04-10T14:38:06.486Z,8.07
2023-04-10T14:41:08.483Z,7.40
2023-04-10T14:44:10.192Z,8.10
2023-04-10T14:47:13.201Z,7.60
2023-04-10T14:50:14.809Z,7.68
2023-04-10T14:53:16.475Z,7.53
2023-04-10T14:56:18.120Z,8.20
2023-04-10T14:59:19.790Z,6.97
2023-04-10T15:02:23.228Z,6.85
2023-04-10T15:05:26.089Z,7.55
2023-04-10T15:08:28.048Z,6.55
2023-04-10T15:11:29.693Z,7.00
2023-04-10T15:14:31.359Z,7.20
2023-04-10T15:17:34.447Z,7.30
2023-04-10T15:20:36.093Z,6.18
2023-04-10T15:23:37.991Z,6.88
2023-04-10T15:26:43.446Z,6.03
2023-04-10T15:29:45.094Z,6.65
2023-04-10T15:32:48.507Z,7.57
2023-04-10T15:35:50.402Z,9.15
2023-04-10T15:38:52.565Z,7.78
2023-04-10T15:41:54.498Z,8.25
2023-04-10T15:44:56.106Z,7.60
2023-04-10T15:47:59.166Z,6.80
2023-04-10T15:51:04.035Z,7.75
2023-04-10T15:54:05.808Z,6.93
2023-04-10T15:57:07.474Z,8.70
2023-04-10T16:00:10.426Z,9.88
2023-04-10T16:03:13.861Z,7.47
2023-04-10T16:09:25.418Z,6.60
2023-04-10T16:12:28.027Z,6.22
2023-04-10T16:15:30.173Z,7.35
2023-04-10T16:18:33.219Z,8.80
2023-04-10T16:21:35.159Z,6.97
2023-04-10T16:24:36.829Z,7.68
2023-04-10T16:27:38.659Z,8.60
2023-04-10T16:30:40.602Z,6.75
2023-04-10T16:33:43.837Z,8.85
2023-04-10T16:36:46.047Z,7.07
2023-04-10T16:39:48.020Z,9.30
2023-04-10T16:42:49.720Z,9.18
2023-04-10T16:45:54.858Z,7.32
2023-04-10T16:48:58.104Z,6.90
2023-04-10T16:51:59.902Z,7.45
2023-04-10T16:55:01.887Z,12.75
2023-04-10T16:58:03.917Z,7.70
2023-04-10T17:01:16.699Z,10.05
2023-04-10T17:04:19.966Z,10.75
2023-04-10T17:07:21.638Z,10.07
2023-04-10T17:10:23.420Z,8.02
2023-04-10T17:13:25.434Z,7.13
2023-04-10T17:16:27.518Z,8.40
2023-04-10T17:19:30.731Z,6.95
2023-04-10T17:22:32.689Z,6.75
2023-04-10T17:25:38.851Z,7.47
2023-04-10T17:28:41.716Z,7.28
2023-04-10T17:31:43.500Z,7.85
2023-04-10T17:34:46.983Z,8.00
2023-04-10T17:37:49.027Z,9.38
2023-04-10T17:40:51.114Z,10.32
2023-04-10T17:43:53.732Z,9.65
2023-04-10T17:46:55.855Z,8.52
2023-04-10T17:49:59.055Z,12.32
2023-04-10T17:53:01.468Z,10.50
2023-04-10T17:56:03.727Z,12.25
2023-04-10T17:59:05.666Z,11.60
2023-04-10T18:02:07.606Z,14.10
2023-04-10T18:05:11.116Z,14.73
2023-04-10T18:08:13.277Z,18.10
2023-04-10T18:11:15.498Z,19.23
2023-04-10T18:14:17.988Z,13.93
2023-04-10T18:17:20.246Z,12.80
2023-04-10T18:20:23.322Z,12.60
2023-04-10T18:23:25.414Z,13.45
2023-04-10T18:26:29.063Z,15.52
2023-04-10T18:32:33.104Z,24.52
2023-04-10T18:35:36.164Z,27.60
2023-04-10T18:38:40.904Z,27.85
2023-04-10T18:41:42.987Z,22.98
2023-04-10T18:44:45.378Z,21.52
2023-04-10T18:47:47.285Z,19.00
2023-04-10T18:50:53.419Z,11.10
2023-04-10T18:53:56.265Z,15.50
2023-04-10T18:56:58.258Z,12.18
2023-04-10T19:00:00.462Z,10.73
2023-04-10T19:03:03.180Z,12.20
2023-04-10T19:06:07.375Z,8.85
2023-04-10T19:09:09.204Z,12.23
2023-04-10T19:12:12.311Z,10.60
2023-04-10T19:15:14.341Z,11.45
2023-04-10T19:18:16.672Z,11.30
2023-04-10T19:21:20.415Z,10.65
2023-04-10T19:27:23.971Z,10.13
2023-04-10T19:30:26.098Z,11.70
2023-04-10T19:33:27.905Z,11.27
2023-04-10T19:36:30.988Z,13.15
2023-04-10T19:39:32.656Z,16.42
2023-04-10T19:42:34.448Z,20.45
2023-04-10T19:45:36.782Z,18.55
2023-04-10T19:48:38.882Z,20.25
2023-04-10T19:51:42.510Z,19.50
2023-04-10T19:57:46.701Z,22.08
2023-04-10T20:00:48.841Z,18.48
2023-04-10T20:03:50.978Z,19.30
2023-04-10T20:06:54.465Z,18.75
2023-04-10T20:09:56.272Z,24.77
2023-04-10T20:12:58.222Z,76.68
2023-04-10T20:16:00.170Z,97.82
2023-04-10T20:19:01.904Z,59.05
2023-04-10T20:22:04.952Z,61.42
2023-04-10T20:25:07.893Z,29.83
2023-04-10T20:28:09.507Z,25.60
2023-04-10T20:31:12.664Z,25.38
2023-04-10T20:34:14.431Z,21.95
2023-04-10T20:37:17.566Z,23.95
2023-04-10T20:40:19.473Z,24.88
2023-04-10T20:43:21.587Z,22.48
2023-04-10T20:46:23.248Z,23.08
2023-04-10T20:49:25.023Z,22.75
2023-04-10T20:52:28.386Z,22.77
2023-04-10T20:55:30.116Z,25.58
2023-04-10T20:58:31.792Z,25.15
2023-04-10T21:01:34.554Z,29.63
2023-04-10T21:04:36.513Z,27.65
2023-04-10T21:07:39.681Z,24.80
2023-04-10T21:10:41.625Z,25.30
2023-04-10T21:13:43.536Z,26.23
2023-04-10T21:16:45.282Z,29.05
2023-04-10T21:19:47.235Z,28.70
2023-04-10T21:22:50.493Z,22.80
2023-04-10T21:25:52.236Z,21.15
2023-04-10T21:28:54.494Z,21.85
2023-04-10T21:31:56.726Z,20.05
2023-04-10T21:34:58.776Z,19.55
2023-04-10T21:38:02.488Z,22.98
2023-04-10T21:41:04.530Z,23.35
2023-04-10T21:44:06.629Z,18.77
2023-04-10T21:47:08.273Z,24.30
2023-04-10T21:50:10.551Z,25.75
2023-04-10T21:53:13.726Z,26.98
2023-04-10T21:56:15.479Z,28.00
2023-04-10T21:59:17.384Z,24.63
2023-04-10T22:02:19.427Z,23.85
2023-04-10T22:05:21.233Z,23.77
2023-04-10T22:08:24.332Z,26.42
2023-04-10T22:11:26.130Z,26.60
2023-04-10T22:14:28.320Z,24.10
2023-04-10T22:17:30.199Z,25.40
2023-04-10T22:20:31.926Z,25.20
2023-04-10T22:23:34.971Z,26.35
2023-04-10T22:26:36.690Z,28.33
2023-04-10T22:29:38.307Z,22.67
2023-04-10T22:32:40.062Z,24.75
2023-04-10T22:35:41.822Z,22.92
2023-04-10T22:38:44.870Z,18.85
2023-04-10T22:41:46.558Z,21.77
2023-04-10T22:44:48.235Z,18.98
2023-04-10T22:47:49.959Z,23.00
2023-04-10T22:50:51.620Z,18.05
2023-04-10T22:53:54.630Z,21.83
2023-04-10T22:56:57.020Z,20.95
2023-04-10T23:00:00.485Z,23.65
2023-04-10T23:06:04.643Z,20.88
2023-04-10T23:09:07.690Z,22.00
2023-04-10T23:12:09.546Z,29.45
2023-04-10T23:15:11.366Z,25.77
2023-04-10T23:18:13.180Z,21.73
2023-04-10T23:21:14.898Z,22.90
2023-04-10T23:24:17.906Z,21.17
2023-04-10T23:27:19.498Z,23.38
2023-04-10T23:30:21.378Z,20.63
2023-04-10T23:33:23.236Z,24.42
2023-04-10T23:36:25.122Z,26.02
2023-04-10T23:39:28.485Z,22.30
2023-04-10T23:42:30.109Z,27.02
2023-04-10T23:45:31.994Z,23.10
2023-04-10T23:48:33.645Z,26.45
2023-04-10T23:51:37.581Z,23.10
2023-04-10T23:54:40.845Z,25.25
2023-04-10T23:57:42.775Z,25.73
